Terminal Aerodrome Forecast
Issued by NWS Brownsville, TX

Home | Current Version | Previous Version | Text Only | Print | Product List | Glossary On
Versions: 1 2 3 4 5 6 7 8 9 10 11 12 13 14 15 16
000
FTUS44 KBRO 231129
TAFBRO
TAF
KBRO 231129Z 2312/2412 00000KT P6SM SCT025 SCT030
      TEMPO 2312/2314 BKN025
     FM231600 05010KT P6SM VCSH SCT030 BKN040
     FM232000 09012G20KT P6SM SCT040
     FM240000 05004KT P6SM FEW030=

USA.gov is the U.S. government's official web portal to all federal, state and local government web resources and services.